sensor_id;sensor_type;location;lat;lon;timestamp;temperature;humidity
37222;DHT22;23119;51.842;-2.230;2022-08-01T00:02:05;18.10;99.90
37222;DHT22;23119;51.842;-2.230;2022-08-01T00:04:31;18.20;99.90
37222;DHT22;23119;51.842;-2.230;2022-08-01T00:07:00;18.20;99.90
37222;DHT22;23119;51.842;-2.230;2022-08-01T00:09:26;18.20;99.90
37222;DHT22;23119;51.842;-2.230;2022-08-01T00:11:54;18.20;99.90
37222;DHT22;23119;51.842;-2.230;2022-08-01T00:14:22;18.30;99.90
37222;DHT22;23119;51.842;-2.230;2022-08-01T00:16:48;18.20;99.90
37222;DHT22;23119;51.842;-2.230;2022-08-01T00:19:17;18.20;99.90
37222;DHT22;23119;51.842;-2.230;2022-08-01T00:21:46;18.20;99.90
37222;DHT22;23119;51.842;-2.230;2022-08-01T00:24:17;18.20;99.90
37222;DHT22;23119;51.842;-2.230;2022-08-01T00:26:48;18.20;99.90
37222;DHT22;23119;51.842;-2.230;2022-08-01T00:29:17;18.20;99.90
37222;DHT22;23119;51.842;-2.230;2022-08-01T00:31:45;18.20;99.90
37222;DHT22;23119;51.842;-2.230;2022-08-01T00:34:14;18.20;99.80
37222;DHT22;23119;51.842;-2.230;2022-08-01T00:36:42;18.20;99.80
37222;DHT22;23119;51.842;-2.230;2022-08-01T00:39:11;18.10;99.70
37222;DHT22;23119;51.842;-2.230;2022-08-01T00:41:37;18.10;99.60
37222;DHT22;23119;51.842;-2.230;2022-08-01T00:44:04;18.10;99.60
37222;DHT22;23119;51.842;-2.230;2022-08-01T00:46:33;18.10;99.50
37222;DHT22;23119;51.842;-2.230;2022-08-01T00:49:00;18.10;99.50
37222;DHT22;23119;51.842;-2.230;2022-08-01T00:51:31;18.00;99.40
37222;DHT22;23119;51.842;-2.230;2022-08-01T00:53:57;18.00;99.50
37222;DHT22;23119;51.842;-2.230;2022-08-01T00:56:26;18.10;99.50
37222;DHT22;23119;51.842;-2.230;2022-08-01T00:58:53;18.00;99.50
37222;DHT22;23119;51.842;-2.230;2022-08-01T01:01:22;18.00;99.60
37222;DHT22;23119;51.842;-2.230;2022-08-01T01:03:49;18.00;99.50
37222;DHT22;23119;51.842;-2.230;2022-08-01T01:06:28;18.00;99.50
37222;DHT22;23119;51.842;-2.230;2022-08-01T01:17:13;17.90;99.70
37222;DHT22;23119;51.842;-2.230;2022-08-01T01:19:47;17.90;99.70
37222;DHT22;23119;51.842;-2.230;2022-08-01T01:28:16;17.90;99.70
37222;DHT22;23119;51.842;-2.230;2022-08-01T01:30:52;17.80;99.80
37222;DHT22;23119;51.842;-2.230;2022-08-01T01:33:21;17.80;99.90
37222;DHT22;23119;51.842;-2.230;2022-08-01T01:35:57;17.80;99.90
37222;DHT22;23119;51.842;-2.230;2022-08-01T01:38:31;17.80;99.80
37222;DHT22;23119;51.842;-2.230;2022-08-01T01:41:02;17.80;99.80
37222;DHT22;23119;51.842;-2.230;2022-08-01T01:43:32;17.90;99.90
37222;DHT22;23119;51.842;-2.230;2022-08-01T01:46:01;17.90;99.90
37222;DHT22;23119;51.842;-2.230;2022-08-01T01:48:30;17.90;99.90
37222;DHT22;23119;51.842;-2.230;2022-08-01T01:50:56;17.90;99.90
37222;DHT22;23119;51.842;-2.230;2022-08-01T01:53:27;17.90;99.90
37222;DHT22;23119;51.842;-2.230;2022-08-01T01:55:56;17.90;99.90
37222;DHT22;23119;51.842;-2.230;2022-08-01T01:58:29;17.80;99.90
37222;DHT22;23119;51.842;-2.230;2022-08-01T02:01:01;17.80;99.90
37222;DHT22;23119;51.842;-2.230;2022-08-01T02:03:28;17.70;99.90
37222;DHT22;23119;51.842;-2.230;2022-08-01T02:05:55;17.60;99.90
37222;DHT22;23119;51.842;-2.230;2022-08-01T02:08:24;17.60;99.90
37222;DHT22;23119;51.842;-2.230;2022-08-01T02:10:55;17.50;99.90
37222;DHT22;23119;51.842;-2.230;2022-08-01T02:13:46;17.50;99.90
37222;DHT22;23119;51.842;-2.230;2022-08-01T02:16:13;17.40;99.90
37222;DHT22;23119;51.842;-2.230;2022-08-01T02:18:43;17.40;99.90
37222;DHT22;23119;51.842;-2.230;2022-08-01T02:21:14;17.40;99.90
37222;DHT22;23119;51.842;-2.230;2022-08-01T02:23:41;17.50;99.90
37222;DHT22;23119;51.842;-2.230;2022-08-01T02:26:16;17.50;99.90
37222;DHT22;23119;51.842;-2.230;2022-08-01T02:28:59;17.50;99.90
37222;DHT22;23119;51.842;-2.230;2022-08-01T02:31:27;17.60;99.90
37222;DHT22;23119;51.842;-2.230;2022-08-01T02:34:00;17.60;99.90
37222;DHT22;23119;51.842;-2.230;2022-08-01T02:36:35;17.60;99.90
37222;DHT22;23119;51.842;-2.230;2022-08-01T02:39:08;17.60;99.90
37222;DHT22;23119;51.842;-2.230;2022-08-01T02:41:39;17.60;99.90
37222;DHT22;23119;51.842;-2.230;2022-08-01T02:44:07;17.60;99.90
37222;DHT22;23119;51.842;-2.230;2022-08-01T02:46:37;17.60;99.90
37222;DHT22;23119;51.842;-2.230;2022-08-01T02:49:06;17.60;99.90
37222;DHT22;23119;51.842;-2.230;2022-08-01T02:51:34;17.60;99.90
37222;DHT22;23119;51.842;-2.230;2022-08-01T02:54:02;17.60;99.90
37222;DHT22;23119;51.842;-2.230;2022-08-01T02:56:35;17.50;99.90
37222;DHT22;23119;51.842;-2.230;2022-08-01T02:59:12;17.50;99.90
37222;DHT22;23119;51.842;-2.230;2022-08-01T03:01:40;17.60;99.90
37222;DHT22;23119;51.842;-2.230;2022-08-01T03:04:07;17.50;99.90
37222;DHT22;23119;51.842;-2.230;2022-08-01T03:06:35;17.50;99.90
37222;DHT22;23119;51.842;-2.230;2022-08-01T03:09:03;17.50;99.90
37222;DHT22;23119;51.842;-2.230;2022-08-01T03:11:31;17.50;99.90
37222;DHT22;23119;51.842;-2.230;2022-08-01T03:13:59;17.50;99.90
37222;DHT22;23119;51.842;-2.230;2022-08-01T03:16:33;17.50;99.90
37222;DHT22;23119;51.842;-2.230;2022-08-01T03:19:01;17.50;99.90
37222;DHT22;23119;51.842;-2.230;2022-08-01T03:21:34;17.50;99.90
37222;DHT22;23119;51.842;-2.230;2022-08-01T03:24:01;17.50;99.90
37222;DHT22;23119;51.842;-2.230;2022-08-01T03:26:31;17.50;99.90
37222;DHT22;23119;51.842;-2.230;2022-08-01T03:29:12;17.40;99.90
37222;DHT22;23119;51.842;-2.230;2022-08-01T03:31:40;17.40;99.80
37222;DHT22;23119;51.842;-2.230;2022-08-01T03:34:09;17.30;99.80
37222;DHT22;23119;51.842;-2.230;2022-08-01T03:36:40;17.30;99.90
37222;DHT22;23119;51.842;-2.230;2022-08-01T03:39:09;17.20;99.80
37222;DHT22;23119;51.842;-2.230;2022-08-01T03:41:41;17.20;99.90
37222;DHT22;23119;51.842;-2.230;2022-08-01T03:44:17;17.10;99.80
37222;DHT22;23119;51.842;-2.230;2022-08-01T03:46:51;17.10;99.90
37222;DHT22;23119;51.842;-2.230;2022-08-01T03:49:24;17.10;99.90
37222;DHT22;23119;51.842;-2.230;2022-08-01T03:51:55;17.10;99.90
37222;DHT22;23119;51.842;-2.230;2022-08-01T03:54:31;17.10;99.90
37222;DHT22;23119;51.842;-2.230;2022-08-01T03:57:06;17.10;99.90
37222;DHT22;23119;51.842;-2.230;2022-08-01T03:59:34;17.10;99.90
37222;DHT22;23119;51.842;-2.230;2022-08-01T04:02:03;17.10;99.90
37222;DHT22;23119;51.842;-2.230;2022-08-01T04:04:31;17.10;99.90
37222;DHT22;23119;51.842;-2.230;2022-08-01T04:06:58;17.10;99.90
37222;DHT22;23119;51.842;-2.230;2022-08-01T04:09:30;17.10;99.90
37222;DHT22;23119;51.842;-2.230;2022-08-01T04:11:59;17.10;99.90
37222;DHT22;23119;51.842;-2.230;2022-08-01T04:14:26;17.10;99.90
37222;DHT22;23119;51.842;-2.230;2022-08-01T04:16:56;17.10;99.90
37222;DHT22;23119;51.842;-2.230;2022-08-01T04:19:23;17.10;99.90
37222;DHT22;23119;51.842;-2.230;2022-08-01T04:21:53;17.10;99.90
37222;DHT22;23119;51.842;-2.230;2022-08-01T04:24:20;17.00;99.90
37222;DHT22;23119;51.842;-2.230;2022-08-01T04:26:47;17.00;99.90
37222;DHT22;23119;51.842;-2.230;2022-08-01T04:29:19;16.90;99.90
37222;DHT22;23119;51.842;-2.230;2022-08-01T04:31:48;17.00;99.90
37222;DHT22;23119;51.842;-2.230;2022-08-01T04:34:20;17.00;99.90
37222;DHT22;23119;51.842;-2.230;2022-08-01T04:36:48;16.90;99.90
37222;DHT22;23119;51.842;-2.230;2022-08-01T04:39:17;16.90;99.90
37222;DHT22;23119;51.842;-2.230;2022-08-01T04:41:49;16.90;99.90
37222;DHT22;23119;51.842;-2.230;2022-08-01T04:44:16;16.90;99.90
37222;DHT22;23119;51.842;-2.230;2022-08-01T04:46:44;16.90;99.90
37222;DHT22;23119;51.842;-2.230;2022-08-01T04:49:11;16.90;99.90
37222;DHT22;23119;51.842;-2.230;2022-08-01T04:51:52;16.90;99.90
37222;DHT22;23119;51.842;-2.230;2022-08-01T04:54:27;16.90;99.90
37222;DHT22;23119;51.842;-2.230;2022-08-01T04:56:57;16.90;99.90
37222;DHT22;23119;51.842;-2.230;2022-08-01T04:59:30;16.90;99.90
37222;DHT22;23119;51.842;-2.230;2022-08-01T05:02:14;16.90;99.90
37222;DHT22;23119;51.842;-2.230;2022-08-01T05:04:44;16.90;99.90
37222;DHT22;23119;51.842;-2.230;2022-08-01T05:07:13;16.90;99.90
37222;DHT22;23119;51.842;-2.230;2022-08-01T05:09:40;16.90;99.90
37222;DHT22;23119;51.842;-2.230;2022-08-01T05:12:09;16.90;99.90
37222;DHT22;23119;51.842;-2.230;2022-08-01T05:14:42;16.90;99.90
37222;DHT22;23119;51.842;-2.230;2022-08-01T05:17:07;17.00;99.90
37222;DHT22;23119;51.842;-2.230;2022-08-01T05:19:34;16.90;99.90
37222;DHT22;23119;51.842;-2.230;2022-08-01T05:22:10;16.90;99.90
37222;DHT22;23119;51.842;-2.230;2022-08-01T05:24:37;16.90;99.90
37222;DHT22;23119;51.842;-2.230;2022-08-01T05:27:08;16.80;99.90
37222;DHT22;23119;51.842;-2.230;2022-08-01T05:29:37;16.80;99.90
37222;DHT22;23119;51.842;-2.230;2022-08-01T05:32:06;16.80;99.90
37222;DHT22;23119;51.842;-2.230;2022-08-01T05:34:31;16.90;99.90
37222;DHT22;23119;51.842;-2.230;2022-08-01T05:36:57;16.80;99.90
37222;DHT22;23119;51.842;-2.230;2022-08-01T05:39:29;16.80;99.90
37222;DHT22;23119;51.842;-2.230;2022-08-01T05:41:54;16.80;99.90
37222;DHT22;23119;51.842;-2.230;2022-08-01T05:44:20;16.80;99.90
37222;DHT22;23119;51.842;-2.230;2022-08-01T05:46:46;16.80;99.90
37222;DHT22;23119;51.842;-2.230;2022-08-01T05:49:12;16.90;99.90
37222;DHT22;23119;51.842;-2.230;2022-08-01T05:51:37;16.90;99.90
37222;DHT22;23119;51.842;-2.230;2022-08-01T05:54:09;16.90;99.90
37222;DHT22;23119;51.842;-2.230;2022-08-01T05:56:35;17.00;99.90
37222;DHT22;23119;51.842;-2.230;2022-08-01T05:59:03;17.00;99.90
37222;DHT22;23119;51.842;-2.230;2022-08-01T06:01:29;17.10;99.90
37222;DHT22;23119;51.842;-2.230;2022-08-01T06:03:58;17.00;99.90
37222;DHT22;23119;51.842;-2.230;2022-08-01T06:06:30;17.10;99.90
37222;DHT22;23119;51.842;-2.230;2022-08-01T06:08:55;17.10;99.90
37222;DHT22;23119;51.842;-2.230;2022-08-01T06:11:21;17.20;99.90
37222;DHT22;23119;51.842;-2.230;2022-08-01T06:13:53;17.20;99.90
37222;DHT22;23119;51.842;-2.230;2022-08-01T06:16:19;17.30;99.90
37222;DHT22;23119;51.842;-2.230;2022-08-01T06:18:45;17.30;99.90
37222;DHT22;23119;51.842;-2.230;2022-08-01T06:21:16;17.30;99.90
37222;DHT22;23119;51.842;-2.230;2022-08-01T06:23:44;17.40;99.90
37222;DHT22;23119;51.842;-2.230;2022-08-01T06:26:10;17.40;99.90
37222;DHT22;23119;51.842;-2.230;2022-08-01T06:28:39;17.50;99.90
37222;DHT22;23119;51.842;-2.230;2022-08-01T06:31:07;17.60;99.90
37222;DHT22;23119;51.842;-2.230;2022-08-01T06:33:35;17.80;99.90
37222;DHT22;23119;51.842;-2.230;2022-08-01T06:36:00;17.90;99.90
37222;DHT22;23119;51.842;-2.230;2022-08-01T06:38:28;18.00;99.90
37222;DHT22;23119;51.842;-2.230;2022-08-01T06:40:54;18.10;99.90
37222;DHT22;23119;51.842;-2.230;2022-08-01T06:43:20;18.20;99.80
37222;DHT22;23119;51.842;-2.230;2022-08-01T06:45:47;18.20;99.80
37222;DHT22;23119;51.842;-2.230;2022-08-01T06:48:13;18.30;99.70
37222;DHT22;23119;51.842;-2.230;2022-08-01T06:50:42;18.30;99.60
37222;DHT22;23119;51.842;-2.230;2022-08-01T06:53:08;18.30;99.30
37222;DHT22;23119;51.842;-2.230;2022-08-01T06:55:34;18.40;99.10
37222;DHT22;23119;51.842;-2.230;2022-08-01T06:58:00;18.40;99.20
37222;DHT22;23119;51.842;-2.230;2022-08-01T07:00:26;17.80;98.80
37222;DHT22;23119;51.842;-2.230;2022-08-01T07:02:57;18.50;99.10
37222;DHT22;23119;51.842;-2.230;2022-08-01T07:05:27;18.60;99.10
37222;DHT22;23119;51.842;-2.230;2022-08-01T07:07:59;18.80;98.80
37222;DHT22;23119;51.842;-2.230;2022-08-01T07:10:25;19.10;98.70
37222;DHT22;23119;51.842;-2.230;2022-08-01T07:12:50;19.30;98.40
37222;DHT22;23119;51.842;-2.230;2022-08-01T07:15:16;19.60;98.40
37222;DHT22;23119;51.842;-2.230;2022-08-01T07:17:43;19.80;97.80
37222;DHT22;23119;51.842;-2.230;2022-08-01T07:20:11;19.90;97.70
37222;DHT22;23119;51.842;-2.230;2022-08-01T07:22:41;20.00;97.70
37222;DHT22;23119;51.842;-2.230;2022-08-01T07:25:07;20.10;97.50
37222;DHT22;23119;51.842;-2.230;2022-08-01T07:27:33;20.10;97.40
37222;DHT22;23119;51.842;-2.230;2022-08-01T07:30:03;20.10;97.00
37222;DHT22;23119;51.842;-2.230;2022-08-01T07:32:33;20.10;97.00
37222;DHT22;23119;51.842;-2.230;2022-08-01T07:35:00;20.20;96.90
37222;DHT22;23119;51.842;-2.230;2022-08-01T07:37:26;20.10;96.40
37222;DHT22;23119;51.842;-2.230;2022-08-01T07:40:10;20.10;96.20
37222;DHT22;23119;51.842;-2.230;2022-08-01T07:42:36;20.00;96.00
37222;DHT22;23119;51.842;-2.230;2022-08-01T07:45:01;20.00;96.30
37222;DHT22;23119;51.842;-2.230;2022-08-01T07:47:30;20.00;95.90
37222;DHT22;23119;51.842;-2.230;2022-08-01T07:50:02;19.90;95.40
37222;DHT22;23119;51.842;-2.230;2022-08-01T07:52:27;19.90;95.80
37222;DHT22;23119;51.842;-2.230;2022-08-01T07:54:57;19.90;95.80
37222;DHT22;23119;51.842;-2.230;2022-08-01T07:57:24;20.00;95.90
37222;DHT22;23119;51.842;-2.230;2022-08-01T07:59:50;20.30;95.80
37222;DHT22;23119;51.842;-2.230;2022-08-01T08:02:16;20.70;94.50
37222;DHT22;23119;51.842;-2.230;2022-08-01T08:04:42;21.40;94.40
37222;DHT22;23119;51.842;-2.230;2022-08-01T08:07:07;22.40;93.00
37222;DHT22;23119;51.842;-2.230;2022-08-01T08:09:39;23.80;91.40
37222;DHT22;23119;51.842;-2.230;2022-08-01T08:12:13;25.40;88.80
37222;DHT22;23119;51.842;-2.230;2022-08-01T08:14:38;27.20;83.70
37222;DHT22;23119;51.842;-2.230;2022-08-01T08:17:05;29.00;81.00
37222;DHT22;23119;51.842;-2.230;2022-08-01T08:19:31;29.50;73.70
37222;DHT22;23119;51.842;-2.230;2022-08-01T08:21:59;29.40;76.70
37222;DHT22;23119;51.842;-2.230;2022-08-01T08:24:26;29.90;76.50
37222;DHT22;23119;51.842;-2.230;2022-08-01T08:27:02;31.00;74.90
37222;DHT22;23119;51.842;-2.230;2022-08-01T08:29:29;32.20;69.00
37222;DHT22;23119;51.842;-2.230;2022-08-01T08:31:59;32.70;69.80
37222;DHT22;23119;51.842;-2.230;2022-08-01T08:34:29;32.90;67.70
37222;DHT22;23119;51.842;-2.230;2022-08-01T08:36:58;32.90;67.00
37222;DHT22;23119;51.842;-2.230;2022-08-01T08:39:27;32.60;64.50
37222;DHT22;23119;51.842;-2.230;2022-08-01T08:41:59;32.20;66.20
37222;DHT22;23119;51.842;-2.230;2022-08-01T08:44:28;31.90;65.30
37222;DHT22;23119;51.842;-2.230;2022-08-01T08:46:55;31.50;65.70
37222;DHT22;23119;51.842;-2.230;2022-08-01T08:49:27;31.70;67.00
37222;DHT22;23119;51.842;-2.230;2022-08-01T08:51:53;31.80;66.20
37222;DHT22;23119;51.842;-2.230;2022-08-01T08:54:24;31.60;66.40
37222;DHT22;23119;51.842;-2.230;2022-08-01T08:56:53;31.10;66.60
37222;DHT22;23119;51.842;-2.230;2022-08-01T08:59:20;30.60;67.00
37222;DHT22;23119;51.842;-2.230;2022-08-01T09:01:47;29.90;67.30
37222;DHT22;23119;51.842;-2.230;2022-08-01T09:04:16;29.40;68.30
37222;DHT22;23119;51.842;-2.230;2022-08-01T09:06:44;29.00;68.90
37222;DHT22;23119;51.842;-2.230;2022-08-01T09:09:13;28.60;69.80
37222;DHT22;23119;51.842;-2.230;2022-08-01T09:11:50;28.60;70.30
37222;DHT22;23119;51.842;-2.230;2022-08-01T09:14:23;28.40;69.10
37222;DHT22;23119;51.842;-2.230;2022-08-01T09:17:09;28.40;70.80
37222;DHT22;23119;51.842;-2.230;2022-08-01T09:19:55;28.50;71.40
37222;DHT22;23119;51.842;-2.230;2022-08-01T09:22:25;28.70;70.90
37222;DHT22;23119;51.842;-2.230;2022-08-01T09:27:32;28.30;69.70
37222;DHT22;23119;51.842;-2.230;2022-08-01T09:32:58;27.80;70.90
37222;DHT22;23119;51.842;-2.230;2022-08-01T09:35:32;27.60;70.80
37222;DHT22;23119;51.842;-2.230;2022-08-01T09:38:19;27.70;71.60
37222;DHT22;23119;51.842;-2.230;2022-08-01T09:43:11;27.50;71.30
37222;DHT22;23119;51.842;-2.230;2022-08-01T09:45:38;27.50;71.60
37222;DHT22;23119;51.842;-2.230;2022-08-01T09:48:08;27.60;71.80
37222;DHT22;23119;51.842;-2.230;2022-08-01T09:50:45;27.70;72.20
37222;DHT22;23119;51.842;-2.230;2022-08-01T09:53:14;27.90;71.80
37222;DHT22;23119;51.842;-2.230;2022-08-01T09:55:41;27.80;71.60
37222;DHT22;23119;51.842;-2.230;2022-08-01T09:58:07;27.70;72.10
37222;DHT22;23119;51.842;-2.230;2022-08-01T10:00:36;27.80;71.60
37222;DHT22;23119;51.842;-2.230;2022-08-01T10:05:44;28.00;70.60
37222;DHT22;23119;51.842;-2.230;2022-08-01T10:08:13;27.90;71.80
37222;DHT22;23119;51.842;-2.230;2022-08-01T10:10:38;27.80;71.70
37222;DHT22;23119;51.842;-2.230;2022-08-01T10:13:04;27.80;72.20
37222;DHT22;23119;51.842;-2.230;2022-08-01T10:15:33;27.90;72.70
37222;DHT22;23119;51.842;-2.230;2022-08-01T10:18:02;28.10;73.20
37222;DHT22;23119;51.842;-2.230;2022-08-01T10:20:32;28.40;73.00
37222;DHT22;23119;51.842;-2.230;2022-08-01T10:23:03;28.50;72.50
37222;DHT22;23119;51.842;-2.230;2022-08-01T10:25:40;28.70;72.40
37222;DHT22;23119;51.842;-2.230;2022-08-01T10:28:17;28.90;72.60
37222;DHT22;23119;51.842;-2.230;2022-08-01T10:30:44;29.20;72.40
37222;DHT22;23119;51.842;-2.230;2022-08-01T10:33:12;29.40;72.80
37222;DHT22;23119;51.842;-2.230;2022-08-01T10:35:41;29.50;71.90
37222;DHT22;23119;51.842;-2.230;2022-08-01T10:38:07;29.50;71.50
37222;DHT22;23119;51.842;-2.230;2022-08-01T10:40:41;29.60;71.20
37222;DHT22;23119;51.842;-2.230;2022-08-01T10:43:11;29.60;71.30
37222;DHT22;23119;51.842;-2.230;2022-08-01T10:45:38;29.60;70.80
37222;DHT22;23119;51.842;-2.230;2022-08-01T10:50:55;29.70;71.10
37222;DHT22;23119;51.842;-2.230;2022-08-01T10:53:30;29.80;71.00
37222;DHT22;23119;51.842;-2.230;2022-08-01T10:56:01;29.90;71.20
37222;DHT22;23119;51.842;-2.230;2022-08-01T10:58:37;30.00;70.70
37222;DHT22;23119;51.842;-2.230;2022-08-01T11:01:22;30.10;71.20
37222;DHT22;23119;51.842;-2.230;2022-08-01T11:06:54;30.10;70.30
37222;DHT22;23119;51.842;-2.230;2022-08-01T11:09:30;30.20;70.40
37222;DHT22;23119;51.842;-2.230;2022-08-01T11:14:25;30.40;70.60
37222;DHT22;23119;51.842;-2.230;2022-08-01T11:16:51;30.30;69.90
37222;DHT22;23119;51.842;-2.230;2022-08-01T11:19:17;30.30;70.30
37222;DHT22;23119;51.842;-2.230;2022-08-01T11:27:15;30.50;69.30
37222;DHT22;23119;51.842;-2.230;2022-08-01T11:29:41;30.50;69.60
37222;DHT22;23119;51.842;-2.230;2022-08-01T11:32:31;30.50;69.50
37222;DHT22;23119;51.842;-2.230;2022-08-01T11:34:57;30.30;68.20
37222;DHT22;23119;51.842;-2.230;2022-08-01T11:37:26;30.00;68.50
37222;DHT22;23119;51.842;-2.230;2022-08-01T11:40:18;29.80;69.30
37222;DHT22;23119;51.842;-2.230;2022-08-01T11:42:45;29.80;68.70
37222;DHT22;23119;51.842;-2.230;2022-08-01T11:45:11;29.70;69.60
37222;DHT22;23119;51.842;-2.230;2022-08-01T11:47:49;29.50;68.90
37222;DHT22;23119;51.842;-2.230;2022-08-01T11:50:35;29.80;69.90
37222;DHT22;23119;51.842;-2.230;2022-08-01T11:53:06;30.00;69.80
37222;DHT22;23119;51.842;-2.230;2022-08-01T11:55:32;30.20;70.20
37222;DHT22;23119;51.842;-2.230;2022-08-01T11:58:06;30.40;69.90
37222;DHT22;23119;51.842;-2.230;2022-08-01T12:00:36;30.50;69.40
37222;DHT22;23119;51.842;-2.230;2022-08-01T12:03:08;30.50;69.10
37222;DHT22;23119;51.842;-2.230;2022-08-01T12:05:35;30.20;68.70
37222;DHT22;23119;51.842;-2.230;2022-08-01T12:08:04;30.30;69.20
37222;DHT22;23119;51.842;-2.230;2022-08-01T12:10:34;30.40;69.40
37222;DHT22;23119;51.842;-2.230;2022-08-01T12:13:06;30.50;69.50
37222;DHT22;23119;51.842;-2.230;2022-08-01T12:15:36;30.50;69.60
37222;DHT22;23119;51.842;-2.230;2022-08-01T12:18:05;30.50;68.30
37222;DHT22;23119;51.842;-2.230;2022-08-01T12:20:34;30.40;67.50
37222;DHT22;23119;51.842;-2.230;2022-08-01T12:23:06;30.30;67.50
37222;DHT22;23119;51.842;-2.230;2022-08-01T12:25:38;30.30;68.00
37222;DHT22;23119;51.842;-2.230;2022-08-01T12:28:10;30.30;68.20
37222;DHT22;23119;51.842;-2.230;2022-08-01T12:30:38;30.20;68.00
37222;DHT22;23119;51.842;-2.230;2022-08-01T12:33:06;30.20;68.10
37222;DHT22;23119;51.842;-2.230;2022-08-01T12:35:33;30.20;66.70
37222;DHT22;23119;51.842;-2.230;2022-08-01T12:38:06;29.80;66.50
37222;DHT22;23119;51.842;-2.230;2022-08-01T12:40:40;29.90;66.70
37222;DHT22;23119;51.842;-2.230;2022-08-01T12:43:19;30.00;67.40
37222;DHT22;23119;51.842;-2.230;2022-08-01T12:45:47;30.00;67.40
37222;DHT22;23119;51.842;-2.230;2022-08-01T12:48:17;30.20;66.70
37222;DHT22;23119;51.842;-2.230;2022-08-01T12:50:45;30.00;66.80
37222;DHT22;23119;51.842;-2.230;2022-08-01T12:53:13;30.00;67.50
37222;DHT22;23119;51.842;-2.230;2022-08-01T12:58:14;29.90;67.40
37222;DHT22;23119;51.842;-2.230;2022-08-01T13:00:42;29.90;67.80
37222;DHT22;23119;51.842;-2.230;2022-08-01T13:03:10;30.10;68.00
37222;DHT22;23119;51.842;-2.230;2022-08-01T13:05:46;30.10;66.90
37222;DHT22;23119;51.842;-2.230;2022-08-01T13:10:48;30.00;67.50
37222;DHT22;23119;51.842;-2.230;2022-08-01T13:13:18;30.10;67.60
37222;DHT22;23119;51.842;-2.230;2022-08-01T13:15:45;30.20;67.20
37222;DHT22;23119;51.842;-2.230;2022-08-01T13:18:35;30.30;67.00
37222;DHT22;23119;51.842;-2.230;2022-08-01T13:21:13;30.30;67.20
37222;DHT22;23119;51.842;-2.230;2022-08-01T13:23:42;30.30;67.40
37222;DHT22;23119;51.842;-2.230;2022-08-01T13:26:08;30.40;68.00
37222;DHT22;23119;51.842;-2.230;2022-08-01T13:28:39;30.40;68.00
37222;DHT22;23119;51.842;-2.230;2022-08-01T13:31:08;30.40;68.00
37222;DHT22;23119;51.842;-2.230;2022-08-01T13:33:43;30.30;67.80
37222;DHT22;23119;51.842;-2.230;2022-08-01T13:36:11;30.20;67.80
37222;DHT22;23119;51.842;-2.230;2022-08-01T13:38:41;30.30;68.40
37222;DHT22;23119;51.842;-2.230;2022-08-01T13:41:27;30.30;68.00
37222;DHT22;23119;51.842;-2.230;2022-08-01T13:43:53;30.50;68.10
37222;DHT22;23119;51.842;-2.230;2022-08-01T13:46:22;30.70;67.60
37222;DHT22;23119;51.842;-2.230;2022-08-01T13:48:50;31.00;67.50
37222;DHT22;23119;51.842;-2.230;2022-08-01T13:51:19;31.20;67.00
37222;DHT22;23119;51.842;-2.230;2022-08-01T13:53:45;31.40;66.70
37222;DHT22;23119;51.842;-2.230;2022-08-01T13:56:11;31.50;66.90
37222;DHT22;23119;51.842;-2.230;2022-08-01T13:58:39;31.70;66.90
37222;DHT22;23119;51.842;-2.230;2022-08-01T14:01:08;31.80;66.50
37222;DHT22;23119;51.842;-2.230;2022-08-01T14:03:36;31.90;66.10
37222;DHT22;23119;51.842;-2.230;2022-08-01T14:06:02;32.00;66.10
37222;DHT22;23119;51.842;-2.230;2022-08-01T14:08:31;32.00;65.00
37222;DHT22;23119;51.842;-2.230;2022-08-01T14:10:57;31.80;64.80
37222;DHT22;23119;51.842;-2.230;2022-08-01T14:13:27;31.70;65.80
37222;DHT22;23119;51.842;-2.230;2022-08-01T14:15:58;31.70;64.80
37222;DHT22;23119;51.842;-2.230;2022-08-01T14:18:24;31.60;65.10
37222;DHT22;23119;51.842;-2.230;2022-08-01T14:20:50;31.50;65.00
37222;DHT22;23119;51.842;-2.230;2022-08-01T14:23:18;31.30;64.80
37222;DHT22;23119;51.842;-2.230;2022-08-01T14:25:44;31.20;65.20
37222;DHT22;23119;51.842;-2.230;2022-08-01T14:28:13;31.20;65.20
37222;DHT22;23119;51.842;-2.230;2022-08-01T14:30:41;31.00;65.50
37222;DHT22;23119;51.842;-2.230;2022-08-01T14:33:08;31.00;66.20
37222;DHT22;23119;51.842;-2.230;2022-08-01T14:35:37;30.80;66.50
37222;DHT22;23119;51.842;-2.230;2022-08-01T14:38:03;30.80;66.10
37222;DHT22;23119;51.842;-2.230;2022-08-01T14:40:29;30.60;66.20
37222;DHT22;23119;51.842;-2.230;2022-08-01T14:42:58;30.50;66.40
37222;DHT22;23119;51.842;-2.230;2022-08-01T14:45:27;30.50;66.90
37222;DHT22;23119;51.842;-2.230;2022-08-01T14:47:53;30.40;66.80
37222;DHT22;23119;51.842;-2.230;2022-08-01T14:50:22;30.20;66.40
37222;DHT22;23119;51.842;-2.230;2022-08-01T14:52:50;30.10;66.80
37222;DHT22;23119;51.842;-2.230;2022-08-01T14:55:20;30.00;66.80
37222;DHT22;23119;51.842;-2.230;2022-08-01T14:57:56;29.90;66.50
37222;DHT22;23119;51.842;-2.230;2022-08-01T15:00:29;29.90;66.20
37222;DHT22;23119;51.842;-2.230;2022-08-01T15:02:58;29.80;66.40
37222;DHT22;23119;51.842;-2.230;2022-08-01T15:05:27;29.80;66.60
37222;DHT22;23119;51.842;-2.230;2022-08-01T15:07:57;29.80;66.70
37222;DHT22;23119;51.842;-2.230;2022-08-01T15:10:28;29.70;67.10
37222;DHT22;23119;51.842;-2.230;2022-08-01T15:12:54;29.70;67.20
37222;DHT22;23119;51.842;-2.230;2022-08-01T15:15:23;29.60;67.20
37222;DHT22;23119;51.842;-2.230;2022-08-01T15:17:51;29.50;67.60
37222;DHT22;23119;51.842;-2.230;2022-08-01T15:20:30;29.50;68.00
37222;DHT22;23119;51.842;-2.230;2022-08-01T15:23:03;29.50;68.30
37222;DHT22;23119;51.842;-2.230;2022-08-01T15:25:31;29.40;68.30
37222;DHT22;23119;51.842;-2.230;2022-08-01T15:28:01;29.30;68.20
37222;DHT22;23119;51.842;-2.230;2022-08-01T15:30:29;29.20;67.20
37222;DHT22;23119;51.842;-2.230;2022-08-01T15:33:01;29.10;66.50
37222;DHT22;23119;51.842;-2.230;2022-08-01T15:35:29;29.00;66.60
37222;DHT22;23119;51.842;-2.230;2022-08-01T15:38:00;29.00;66.30
37222;DHT22;23119;51.842;-2.230;2022-08-01T15:40:33;29.00;66.70
37222;DHT22;23119;51.842;-2.230;2022-08-01T15:43:02;29.00;66.70
37222;DHT22;23119;51.842;-2.230;2022-08-01T15:45:33;29.00;65.80
37222;DHT22;23119;51.842;-2.230;2022-08-01T15:47:59;28.90;65.80
37222;DHT22;23119;51.842;-2.230;2022-08-01T15:50:30;28.90;66.10
37222;DHT22;23119;51.842;-2.230;2022-08-01T15:53:02;28.90;65.90
37222;DHT22;23119;51.842;-2.230;2022-08-01T15:55:30;28.90;65.70
37222;DHT22;23119;51.842;-2.230;2022-08-01T15:58:01;28.90;66.10
37222;DHT22;23119;51.842;-2.230;2022-08-01T16:00:35;28.90;66.20
37222;DHT22;23119;51.842;-2.230;2022-08-01T16:03:01;28.90;64.70
37222;DHT22;23119;51.842;-2.230;2022-08-01T16:05:32;28.80;64.60
37222;DHT22;23119;51.842;-2.230;2022-08-01T16:08:03;28.80;64.40
37222;DHT22;23119;51.842;-2.230;2022-08-01T16:10:33;28.80;64.60
37222;DHT22;23119;51.842;-2.230;2022-08-01T16:13:04;28.80;64.80
37222;DHT22;23119;51.842;-2.230;2022-08-01T16:15:32;28.80;65.40